createdAt,value
2017-09-15T00:02:16.370Z,3.10
2017-09-15T00:04:43.683Z,3.47
2017-09-15T00:07:10.996Z,2.90
2017-09-15T00:09:38.301Z,3.10
2017-09-15T00:12:08.225Z,3.40
2017-09-15T00:14:35.528Z,2.63
2017-09-15T00:17:02.819Z,2.83
2017-09-15T00:19:30.160Z,2.93
2017-09-15T00:21:57.452Z,2.60
2017-09-15T00:24:24.765Z,3.20
2017-09-15T00:26:52.287Z,2.80
2017-09-15T00:29:19.654Z,2.87
2017-09-15T00:31:46.948Z,3.20
2017-09-15T00:34:14.287Z,2.83
2017-09-15T00:36:41.643Z,3.03
2017-09-15T00:39:08.966Z,2.90
2017-09-15T00:41:36.420Z,2.80
2017-09-15T00:44:03.732Z,3.30
2017-09-15T00:46:31.024Z,3.30
2017-09-15T00:48:58.461Z,3.30
2017-09-15T00:51:25.748Z,4.00
2017-09-15T00:53:53.364Z,3.30
2017-09-15T00:56:21.673Z,3.27
2017-09-15T00:58:48.989Z,4.00
2017-09-15T01:01:16.285Z,3.77
2017-09-15T01:03:47.602Z,3.70
2017-09-15T01:06:14.916Z,3.63
2017-09-15T01:08:42.503Z,4.00
2017-09-15T01:11:09.800Z,3.97
2017-09-15T01:13:37.093Z,3.93
2017-09-15T01:16:04.404Z,4.53
2017-09-15T01:18:31.692Z,4.67
2017-09-15T01:21:02.586Z,4.40
2017-09-15T01:23:29.873Z,4.90
2017-09-15T01:25:57.876Z,4.80
2017-09-15T01:28:25.148Z,5.53
2017-09-15T01:30:52.476Z,5.13
2017-09-15T01:33:21.652Z,5.40
2017-09-15T01:35:48.952Z,6.17
2017-09-15T01:38:16.532Z,6.77
2017-09-15T01:40:43.840Z,6.90
2017-09-15T01:43:11.136Z,7.43
2017-09-15T01:45:38.456Z,6.40
2017-09-15T01:48:05.773Z,7.27
2017-09-15T01:50:33.085Z,6.80
2017-09-15T01:53:00.399Z,7.33
2017-09-15T01:55:27.724Z,9.20
2017-09-15T01:57:55.037Z,6.57
2017-09-15T02:00:22.336Z,6.93
2017-09-15T02:02:49.672Z,6.83
2017-09-15T02:05:16.989Z,7.43
2017-09-15T02:07:45.288Z,7.30
2017-09-15T02:10:12.798Z,7.00
2017-09-15T02:12:40.166Z,7.60
2017-09-15T02:15:11.122Z,7.00
2017-09-15T02:17:38.442Z,8.13
2017-09-15T02:20:06.665Z,7.63
2017-09-15T02:22:34.001Z,7.60
2017-09-15T02:25:02.083Z,7.43
2017-09-15T02:27:29.400Z,7.30
2017-09-15T02:29:56.728Z,7.57
2017-09-15T02:32:24.034Z,7.20
2017-09-15T02:34:51.363Z,8.23
2017-09-15T02:37:18.709Z,8.80
2017-09-15T02:39:46.045Z,7.83
2017-09-15T02:42:13.386Z,7.20
2017-09-15T02:44:42.617Z,6.80
2017-09-15T02:47:09.924Z,6.73
2017-09-15T02:49:37.224Z,7.37
2017-09-15T02:52:05.433Z,6.47
2017-09-15T02:54:32.754Z,6.80
2017-09-15T02:57:00.055Z,6.40
2017-09-15T02:59:27.375Z,6.90
2017-09-15T03:01:54.672Z,6.60
2017-09-15T03:04:22.021Z,6.63
2017-09-15T03:06:49.580Z,6.50
2017-09-15T03:09:17.109Z,7.07
2017-09-15T03:11:44.412Z,6.30
2017-09-15T03:14:11.721Z,5.63
2017-09-15T03:16:39.835Z,6.13
2017-09-15T03:19:08.088Z,5.53
2017-09-15T03:21:35.417Z,5.77
2017-09-15T03:24:02.726Z,5.97
2017-09-15T03:26:30.008Z,6.63
2017-09-15T03:28:57.432Z,5.90
2017-09-15T03:31:24.721Z,5.50
2017-09-15T03:33:52.020Z,4.87
2017-09-15T03:36:19.333Z,5.90
2017-09-15T03:38:46.632Z,5.80
2017-09-15T03:41:15.707Z,6.63
2017-09-15T03:43:43.316Z,6.30
2017-09-15T03:46:10.629Z,5.53
2017-09-15T03:48:37.954Z,5.60
2017-09-15T03:51:05.264Z,4.97
2017-09-15T03:53:32.585Z,5.80
2017-09-15T03:55:59.901Z,5.00
2017-09-15T03:58:27.208Z,5.77
2017-09-15T04:00:54.548Z,4.70
2017-09-15T04:03:22.790Z,5.40
2017-09-15T04:05:50.146Z,4.77
2017-09-15T04:08:17.466Z,5.00
2017-09-15T04:10:44.772Z,4.50
2017-09-15T04:13:12.063Z,4.30
2017-09-15T04:15:42.189Z,4.20
2017-09-15T04:18:09.508Z,4.53
2017-09-15T04:20:36.862Z,4.67
2017-09-15T04:23:04.180Z,4.63
2017-09-15T04:25:31.525Z,4.53
2017-09-15T04:27:58.846Z,4.60
2017-09-15T04:30:26.160Z,4.00
2017-09-15T04:32:53.745Z,4.23
2017-09-15T04:35:21.049Z,4.17
2017-09-15T04:37:48.360Z,4.20
2017-09-15T04:40:15.682Z,4.47
2017-09-15T04:42:43.023Z,4.47
2017-09-15T04:45:11.098Z,4.20
2017-09-15T04:47:38.420Z,3.87
2017-09-15T04:50:07.097Z,3.53
2017-09-15T04:52:34.468Z,3.53
2017-09-15T04:55:01.772Z,4.20
2017-09-15T04:57:29.122Z,3.60
2017-09-15T04:59:56.432Z,3.23
2017-09-15T05:02:23.801Z,3.90
2017-09-15T05:04:51.129Z,3.93
2017-09-15T05:07:18.428Z,3.57
2017-09-15T05:09:45.717Z,3.40
2017-09-15T05:12:13.042Z,4.20
2017-09-15T05:14:40.477Z,4.13
2017-09-15T05:17:07.787Z,4.80
2017-09-15T05:19:35.096Z,4.00
2017-09-15T05:22:03.090Z,4.17
2017-09-15T05:24:30.388Z,4.50
2017-09-15T05:26:57.712Z,4.50
2017-09-15T05:29:25.036Z,3.97
2017-09-15T05:31:52.372Z,4.30
2017-09-15T05:34:19.685Z,4.00
2017-09-15T05:36:47.940Z,4.50
2017-09-15T05:39:15.421Z,4.10
2017-09-15T05:41:42.804Z,4.60
2017-09-15T05:44:10.489Z,4.67
2017-09-15T05:46:37.780Z,4.20
2017-09-15T05:49:05.111Z,4.50
2017-09-15T05:51:32.592Z,4.33
2017-09-15T05:53:59.913Z,4.20
2017-09-15T05:56:27.233Z,4.03
2017-09-15T05:58:54.543Z,3.83
2017-09-15T06:01:21.883Z,4.27
2017-09-15T06:03:49.188Z,4.03
2017-09-15T06:06:16.693Z,4.70
2017-09-15T06:08:44.151Z,3.77
2017-09-15T06:11:11.481Z,4.30
2017-09-15T06:13:38.832Z,4.13
2017-09-15T06:16:06.914Z,4.10
2017-09-15T06:18:34.236Z,3.80
2017-09-15T06:21:01.760Z,3.93
2017-09-15T06:23:29.130Z,3.87
2017-09-15T06:25:56.469Z,4.53
2017-09-15T06:28:24.498Z,3.83
2017-09-15T06:30:51.817Z,3.67
2017-09-15T06:33:19.308Z,3.90
2017-09-15T06:35:46.625Z,4.30
2017-09-15T06:38:13.931Z,4.87
2017-09-15T06:40:41.685Z,4.10
2017-09-15T06:43:10.304Z,3.97
2017-09-15T06:45:38.568Z,4.50
2017-09-15T06:48:05.906Z,4.87
2017-09-15T06:50:33.262Z,4.60
2017-09-15T06:53:00.585Z,4.43
2017-09-15T06:55:27.901Z,4.47
2017-09-15T06:57:55.213Z,4.40
2017-09-15T07:00:22.532Z,4.50
2017-09-15T07:02:49.841Z,4.37
2017-09-15T07:05:17.187Z,4.60
2017-09-15T07:07:44.643Z,4.80
2017-09-15T07:10:12.945Z,4.60
2017-09-15T07:12:40.287Z,4.40
2017-09-15T07:15:07.610Z,4.73
2017-09-15T07:17:34.937Z,4.30
2017-09-15T07:20:02.513Z,5.30
2017-09-15T07:22:29.832Z,4.30
2017-09-15T07:24:57.137Z,4.77
2017-09-15T07:27:24.453Z,4.67
2017-09-15T07:29:51.749Z,4.40
2017-09-15T07:32:19.107Z,4.60
2017-09-15T07:34:46.408Z,4.00
2017-09-15T07:37:13.739Z,3.90
2017-09-15T07:39:41.035Z,4.13
2017-09-15T07:42:08.382Z,4.03
2017-09-15T07:44:35.677Z,4.27
2017-09-15T07:47:03.034Z,3.90
2017-09-15T07:49:30.356Z,3.60
2017-09-15T07:51:58.189Z,3.50
2017-09-15T07:54:25.472Z,3.80
2017-09-15T07:56:52.816Z,4.17
2017-09-15T07:59:20.133Z,3.70
2017-09-15T08:01:47.478Z,3.60
2017-09-15T08:04:14.793Z,3.60
2017-09-15T08:06:42.093Z,3.13
2017-09-15T08:09:09.404Z,3.47
2017-09-15T08:11:36.733Z,3.57
2017-09-15T08:14:04.079Z,3.00
2017-09-15T08:16:31.418Z,3.47
2017-09-15T08:18:58.907Z,3.07
2017-09-15T08:21:26.212Z,3.30
2017-09-15T08:23:53.557Z,2.90
2017-09-15T08:26:20.876Z,3.03
2017-09-15T08:28:48.201Z,2.70
2017-09-15T08:31:16.908Z,3.03
2017-09-15T08:33:44.269Z,2.60
2017-09-15T08:36:11.556Z,2.73
2017-09-15T08:38:38.895Z,2.40
2017-09-15T08:41:06.196Z,2.77
2017-09-15T08:43:33.512Z,2.50
2017-09-15T08:46:02.230Z,2.47
2017-09-15T08:48:29.537Z,2.57
2017-09-15T08:50:56.841Z,2.40
2017-09-15T08:53:25.776Z,2.40
2017-09-15T08:55:53.089Z,2.13
2017-09-15T08:58:20.377Z,2.20
2017-09-15T09:00:47.709Z,2.30
2017-09-15T09:03:15.002Z,2.93
2017-09-15T09:05:42.314Z,2.33
2017-09-15T09:08:09.614Z,2.53
2017-09-15T09:10:36.941Z,2.40
2017-09-15T09:13:04.249Z,3.10
2017-09-15T09:15:31.560Z,2.83
2017-09-15T09:17:58.861Z,2.00
2017-09-15T09:20:26.203Z,2.20
2017-09-15T09:22:53.524Z,2.47
2017-09-15T09:25:20.833Z,2.30
2017-09-15T09:27:48.146Z,2.60
2017-09-15T09:30:15.465Z,2.90
2017-09-15T09:32:42.785Z,2.33
2017-09-15T09:35:10.148Z,2.50
2017-09-15T09:37:37.465Z,2.60
2017-09-15T09:40:04.782Z,2.53
2017-09-15T09:42:32.196Z,2.90
2017-09-15T09:44:59.586Z,3.00
2017-09-15T09:47:27.029Z,3.20
2017-09-15T09:49:54.350Z,3.20
2017-09-15T09:52:21.643Z,2.73
2017-09-15T09:54:48.949Z,2.93
2017-09-15T09:57:16.274Z,2.93
2017-09-15T09:59:43.572Z,2.90
2017-09-15T10:02:10.901Z,3.47
2017-09-15T10:04:45.376Z,3.50
2017-09-15T10:07:12.859Z,2.80
2017-09-15T10:09:42.382Z,3.20
2017-09-15T10:12:09.747Z,2.67
2017-09-15T10:14:37.056Z,2.60
2017-09-15T10:17:04.381Z,2.97
2017-09-15T10:19:31.703Z,2.60
2017-09-15T10:21:59.076Z,2.80
2017-09-15T10:24:26.372Z,3.30
2017-09-15T10:26:54.356Z,2.80
2017-09-15T10:29:23.677Z,2.77
2017-09-15T10:31:51.383Z,3.00
2017-09-15T10:34:18.737Z,2.90
2017-09-15T10:36:46.209Z,3.40
2017-09-15T10:39:13.650Z,2.23
2017-09-15T10:41:41.014Z,2.50
2017-09-15T10:44:08.349Z,2.43
2017-09-15T10:46:35.742Z,2.87
2017-09-15T10:49:03.143Z,2.60
2017-09-15T10:51:30.544Z,2.50
2017-09-15T10:53:57.897Z,2.40
2017-09-15T10:56:26.263Z,2.80
2017-09-15T10:58:59.276Z,2.30
2017-09-15T11:01:26.588Z,2.30
2017-09-15T11:03:54.185Z,2.30
2017-09-15T11:06:21.492Z,2.83
2017-09-15T11:08:48.789Z,2.93
2017-09-15T11:11:16.306Z,2.40
2017-09-15T11:13:43.634Z,2.73
2017-09-15T11:16:10.943Z,2.70
2017-09-15T11:18:39.136Z,3.50
2017-09-15T11:21:06.437Z,2.30
2017-09-15T11:23:33.754Z,2.57
2017-09-15T11:26:01.073Z,2.37
2017-09-15T11:28:28.714Z,2.40
2017-09-15T11:30:56.056Z,2.37
2017-09-15T11:33:23.367Z,2.50
2017-09-15T11:35:50.648Z,2.60
2017-09-15T11:38:17.953Z,1.90
2017-09-15T11:40:45.252Z,2.50
2017-09-15T11:43:12.566Z,2.70
2017-09-15T11:45:39.905Z,2.40
2017-09-15T11:48:07.281Z,2.30
2017-09-15T11:50:34.592Z,2.40
2017-09-15T11:53:02.260Z,2.67
2017-09-15T11:55:29.593Z,2.30
2017-09-15T11:57:56.921Z,2.40
2017-09-15T12:00:24.457Z,2.40
2017-09-15T12:02:51.805Z,2.47
2017-09-15T12:05:19.132Z,2.33
2017-09-15T12:07:46.461Z,2.10
2017-09-15T12:10:13.761Z,2.40
2017-09-15T12:12:41.078Z,2.43
2017-09-15T12:15:08.389Z,2.47
2017-09-15T12:17:35.696Z,2.37
2017-09-15T12:20:03.014Z,2.27
2017-09-15T12:22:30.324Z,2.50
2017-09-15T12:24:57.653Z,2.37
2017-09-15T12:27:25.013Z,2.53
2017-09-15T12:29:52.346Z,2.77
2017-09-15T12:32:20.624Z,2.40
2017-09-15T12:34:48.325Z,2.10
2017-09-15T12:37:15.719Z,2.00
2017-09-15T12:39:43.028Z,2.50
2017-09-15T12:42:10.388Z,2.47
2017-09-15T12:44:37.732Z,2.20
2017-09-15T12:47:05.162Z,2.37
2017-09-15T12:49:32.460Z,2.10
2017-09-15T12:51:59.761Z,2.70
2017-09-15T12:54:28.333Z,2.20
2017-09-15T12:56:55.681Z,2.50
2017-09-15T12:59:23.022Z,2.63
2017-09-15T13:01:50.333Z,3.07
2017-09-15T13:04:18.723Z,2.27
2017-09-15T13:06:47.001Z,2.63
2017-09-15T13:09:14.337Z,2.43
2017-09-15T13:11:41.670Z,2.77
2017-09-15T13:14:08.997Z,2.87
2017-09-15T13:16:36.340Z,2.77
2017-09-15T13:19:03.732Z,2.43
2017-09-15T13:21:31.038Z,3.20
2017-09-15T13:23:59.504Z,3.10
2017-09-15T13:26:26.802Z,2.60
2017-09-15T13:28:54.673Z,2.57
2017-09-15T13:31:22.543Z,2.57
2017-09-15T13:33:49.853Z,2.30
2017-09-15T13:36:17.239Z,2.27
2017-09-15T13:38:44.697Z,2.83
2017-09-15T13:41:12.052Z,2.63
2017-09-15T13:43:39.516Z,2.50
2017-09-15T13:46:06.824Z,2.83
2017-09-15T13:48:34.163Z,3.13
2017-09-15T13:51:01.469Z,3.10
2017-09-15T13:53:28.804Z,2.83
2017-09-15T13:55:56.184Z,2.90
2017-09-15T13:58:23.533Z,2.90
2017-09-15T14:00:50.864Z,3.50
2017-09-15T14:03:18.396Z,3.30
2017-09-15T14:05:45.680Z,3.57
2017-09-15T14:08:13.036Z,3.33
2017-09-15T14:10:40.529Z,3.37
2017-09-15T14:13:07.876Z,3.43
2017-09-15T14:15:35.214Z,3.97
2017-09-15T14:18:02.553Z,4.20
2017-09-15T14:20:29.913Z,4.07
2017-09-15T14:22:57.231Z,3.87
2017-09-15T14:25:24.563Z,3.87
2017-09-15T14:27:51.938Z,3.83
2017-09-15T14:30:19.250Z,4.43
2017-09-15T14:32:46.595Z,4.00
2017-09-15T14:35:13.926Z,3.80
2017-09-15T14:37:41.245Z,4.03
2017-09-15T14:40:08.561Z,3.73
2017-09-15T14:42:35.846Z,3.73
2017-09-15T14:45:03.281Z,3.23
2017-09-15T14:47:31.426Z,3.80
2017-09-15T14:49:58.732Z,2.83
2017-09-15T14:52:26.034Z,3.10
2017-09-15T14:54:53.385Z,2.90
2017-09-15T14:57:20.693Z,2.60
2017-09-15T14:59:48.009Z,2.60
2017-09-15T15:02:15.472Z,2.63
2017-09-15T15:04:42.793Z,2.40
2017-09-15T15:07:10.111Z,3.00
2017-09-15T15:09:37.424Z,2.50
2017-09-15T15:12:04.743Z,2.80
2017-09-15T15:14:32.056Z,2.60
2017-09-15T15:16:59.362Z,2.80
2017-09-15T15:19:26.681Z,2.87
2017-09-15T15:21:54.021Z,2.50
2017-09-15T15:24:21.385Z,2.53
2017-09-15T15:26:48.698Z,2.53
2017-09-15T15:29:16.057Z,2.30
2017-09-15T15:31:43.353Z,2.50
2017-09-15T15:34:10.680Z,2.60
2017-09-15T15:36:37.961Z,2.60
2017-09-15T15:39:05.347Z,2.17
2017-09-15T15:41:32.674Z,2.50
2017-09-15T15:43:59.990Z,3.30
2017-09-15T15:46:27.359Z,2.73
2017-09-15T15:48:54.672Z,2.70
2017-09-15T15:51:22.014Z,2.40
2017-09-15T15:53:49.342Z,2.50
2017-09-15T15:56:16.644Z,2.30
2017-09-15T15:58:43.937Z,2.70
2017-09-15T16:01:11.273Z,3.70
2017-09-15T16:03:38.602Z,4.17
2017-09-15T16:06:05.923Z,5.27
2017-09-15T16:08:33.233Z,3.70
2017-09-15T16:11:00.560Z,3.60
2017-09-15T16:13:27.894Z,8.33
2017-09-15T16:15:55.261Z,7.43
2017-09-15T16:18:22.549Z,6.97
2017-09-15T16:20:49.853Z,3.80
2017-09-15T16:23:17.156Z,3.67
2017-09-15T16:25:44.489Z,3.73
2017-09-15T16:28:11.818Z,6.63
2017-09-15T16:30:39.541Z,5.60
2017-09-15T16:33:07.029Z,5.13
2017-09-15T16:35:34.356Z,4.20
2017-09-15T16:38:07.514Z,4.70
2017-09-15T16:40:40.711Z,4.47
2017-09-15T16:43:13.776Z,4.07
2017-09-15T16:45:46.946Z,4.33
2017-09-15T16:48:20.044Z,3.73
2017-09-15T16:50:47.355Z,4.17
2017-09-15T16:53:14.668Z,3.67
2017-09-15T16:55:42.909Z,5.20
2017-09-15T16:58:10.226Z,8.60
2017-09-15T17:00:37.582Z,8.33
2017-09-15T17:03:04.925Z,9.27
2017-09-15T17:05:32.267Z,9.20
2017-09-15T17:07:59.593Z,11.07
2017-09-15T17:10:26.910Z,10.10
2017-09-15T17:12:54.213Z,9.47
2017-09-15T17:15:21.532Z,15.53
2017-09-15T17:17:48.868Z,13.57
2017-09-15T17:20:16.216Z,9.43
2017-09-15T17:22:43.516Z,8.77
2017-09-15T17:25:10.880Z,7.03
2017-09-15T17:27:38.216Z,5.73
2017-09-15T17:30:05.551Z,5.60
2017-09-15T17:32:32.852Z,5.50
2017-09-15T17:35:00.157Z,5.67
2017-09-15T17:37:28.421Z,5.87
2017-09-15T17:39:55.728Z,6.13
2017-09-15T17:42:23.056Z,6.20
2017-09-15T17:44:50.346Z,5.87
2017-09-15T17:47:17.676Z,7.07
2017-09-15T17:49:45.017Z,7.10
2017-09-15T17:52:12.379Z,6.53
2017-09-15T17:54:39.693Z,6.30
2017-09-15T17:57:07.059Z,6.00
2017-09-15T17:59:34.364Z,5.77
2017-09-15T18:02:01.738Z,6.47
2017-09-15T18:04:29.037Z,7.13
2017-09-15T18:06:56.393Z,6.90
2017-09-15T18:09:23.702Z,6.80
2017-09-15T18:11:51.009Z,6.43
2017-09-15T18:14:18.300Z,6.70
2017-09-15T18:16:45.646Z,6.50
2017-09-15T18:19:12.938Z,6.00
2017-09-15T18:21:40.247Z,5.87
2017-09-15T18:24:07.566Z,5.30
2017-09-15T18:26:34.876Z,5.63
2017-09-15T18:29:02.241Z,6.33
2017-09-15T18:31:29.606Z,6.03
2017-09-15T18:33:56.929Z,6.37
2017-09-15T18:36:25.198Z,6.10
2017-09-15T18:38:52.492Z,6.07
2017-09-15T18:41:20.085Z,6.53
2017-09-15T18:43:47.416Z,6.27
2017-09-15T18:46:14.730Z,6.67
2017-09-15T18:48:42.114Z,6.60
2017-09-15T18:51:09.465Z,6.50
2017-09-15T18:53:36.808Z,6.47
2017-09-15T18:56:04.125Z,6.57
2017-09-15T18:58:31.462Z,6.00
2017-09-15T19:00:58.762Z,5.80
2017-09-15T19:03:26.092Z,6.10
2017-09-15T19:05:53.404Z,6.60
2017-09-15T19:08:20.719Z,6.13
2017-09-15T19:10:48.017Z,6.17
2017-09-15T19:13:15.329Z,6.03
2017-09-15T19:15:42.665Z,6.50
2017-09-15T19:18:10.021Z,5.90
2017-09-15T19:20:37.330Z,6.90
2017-09-15T19:23:04.651Z,7.57
2017-09-15T19:25:31.957Z,8.03
2017-09-15T19:28:00.222Z,8.10
2017-09-15T19:30:27.516Z,8.43
2017-09-15T19:32:55.001Z,9.07
2017-09-15T19:35:22.343Z,8.40
2017-09-15T19:37:49.670Z,9.00
2017-09-15T19:40:17.008Z,10.00
2017-09-15T19:42:44.357Z,9.73
2017-09-15T19:45:11.876Z,10.40
2017-09-15T19:47:39.244Z,9.60
2017-09-15T19:50:06.564Z,8.87
2017-09-15T19:52:33.876Z,8.47
2017-09-15T19:55:01.202Z,8.70
2017-09-15T19:57:28.513Z,8.57
2017-09-15T19:59:55.860Z,8.20
2017-09-15T20:02:23.210Z,8.37
2017-09-15T20:04:50.533Z,8.07
2017-09-15T20:07:17.856Z,8.40
2017-09-15T20:09:45.196Z,9.00
2017-09-15T20:12:13.485Z,11.10
2017-09-15T20:14:42.953Z,12.80
2017-09-15T20:17:10.301Z,8.90
2017-09-15T20:19:38.645Z,9.33
2017-09-15T20:22:05.941Z,8.97
2017-09-15T20:24:33.273Z,9.83
2017-09-15T20:27:00.934Z,9.30
2017-09-15T20:29:28.241Z,10.40
2017-09-15T20:31:55.577Z,10.70
2017-09-15T20:34:22.927Z,12.43
2017-09-15T20:36:50.268Z,13.20
2017-09-15T20:39:17.612Z,13.20
2017-09-15T20:41:44.945Z,13.77
2017-09-15T20:44:12.296Z,13.60
2017-09-15T20:46:39.604Z,13.50
2017-09-15T20:49:07.252Z,12.33
2017-09-15T20:51:34.588Z,11.20
2017-09-15T20:54:01.934Z,11.77
2017-09-15T20:56:29.234Z,12.80
2017-09-15T20:58:56.568Z,12.07
2017-09-15T21:01:23.883Z,13.13
2017-09-15T21:03:51.221Z,11.00
2017-09-15T21:06:18.553Z,11.20
2017-09-15T21:08:45.901Z,9.70
2017-09-15T21:11:13.537Z,8.27
2017-09-15T21:13:40.880Z,8.70
2017-09-15T21:16:08.213Z,7.80
2017-09-15T21:18:35.584Z,9.20
2017-09-15T21:21:02.894Z,7.67
2017-09-15T21:23:30.258Z,7.43
2017-09-15T21:25:57.571Z,7.40
2017-09-15T21:28:25.361Z,6.70
2017-09-15T21:30:52.747Z,7.17
2017-09-15T21:33:20.049Z,7.00
2017-09-15T21:35:47.356Z,7.60
2017-09-15T21:38:14.676Z,8.50
2017-09-15T21:40:41.997Z,7.10
2017-09-15T21:43:09.293Z,8.40
2017-09-15T21:45:36.634Z,9.43
2017-09-15T21:48:03.984Z,11.20
2017-09-15T21:50:31.326Z,12.63
2017-09-15T21:52:59.861Z,12.53
2017-09-15T21:55:27.240Z,10.67
2017-09-15T21:57:54.549Z,7.60
2017-09-15T22:00:21.921Z,8.13
2017-09-15T22:02:49.220Z,7.17
2017-09-15T22:05:16.549Z,6.30
2017-09-15T22:07:43.855Z,5.97
2017-09-15T22:10:11.173Z,6.30
2017-09-15T22:12:38.476Z,6.60
2017-09-15T22:15:06.257Z,6.60
2017-09-15T22:17:33.541Z,6.80
2017-09-15T22:20:00.849Z,6.67
2017-09-15T22:22:28.156Z,6.60
2017-09-15T22:24:55.469Z,6.70
2017-09-15T22:27:22.774Z,7.20
2017-09-15T22:29:50.125Z,7.60
2017-09-15T22:32:17.444Z,7.50
2017-09-15T22:34:44.786Z,8.17
2017-09-15T22:37:12.108Z,7.13
2017-09-15T22:39:41.422Z,8.07
2017-09-15T22:42:08.744Z,7.80
2017-09-15T22:44:36.069Z,8.17
2017-09-15T22:47:03.673Z,8.00
2017-09-15T22:49:31.001Z,8.50
2017-09-15T22:51:58.317Z,7.90
2017-09-15T22:54:31.506Z,8.73
2017-09-15T22:56:58.834Z,7.57
2017-09-15T22:59:27.168Z,8.27
2017-09-15T23:01:55.462Z,8.00
2017-09-15T23:04:22.813Z,8.10
2017-09-15T23:06:50.146Z,9.10
2017-09-15T23:09:17.505Z,8.50
2017-09-15T23:11:44.811Z,8.40
2017-09-15T23:14:12.149Z,8.20
2017-09-15T23:16:39.453Z,7.80
2017-09-15T23:19:06.752Z,8.20
2017-09-15T23:21:34.105Z,8.20
2017-09-15T23:24:01.441Z,8.63
2017-09-15T23:26:29.069Z,9.10
2017-09-15T23:28:56.401Z,9.03
2017-09-15T23:31:23.722Z,8.80
2017-09-15T23:33:51.029Z,9.07
2017-09-15T23:36:18.357Z,9.70
2017-09-15T23:38:47.330Z,9.67
2017-09-15T23:41:14.680Z,9.00
2017-09-15T23:43:42.009Z,9.57
2017-09-15T23:46:09.360Z,9.80
2017-09-15T23:48:36.680Z,9.23
2017-09-15T23:51:05.984Z,10.00
2017-09-15T23:53:33.389Z,10.10
2017-09-15T23:56:01.713Z,9.80
2017-09-15T23:58:29.032Z,10.03
